AirNav   Phillips 66 Aviation Fuel
 
 881 users online  

1IL3 Alton Memorial Hospital Heliport
Alton, Illinois, USA

GOING TO ALTON?


FAA INFORMATION EFFECTIVE 12 SEPTEMBER 2019

Location

FAA Identifier: 1IL3
Lat/Long: 38-53-55.0600N 090-09-34.8800W
38-53.917667N 090-09.581333W
38.8986278,-90.1596889
(estimated)
Elevation: 525 ft. / 160 m (estimated)
Variation: 02E (1990)
From city: 1 mile SW of ALTON, IL
Time zone: UTC -5 (UTC -6 during Standard Time)
Zip code: 62002

Heliport Operations

Heliport use: Private use. Permission required prior to landing
Activation date: 09/1990
Control tower: no
ARTCC: KANSAS CITY CENTER
FSS: SAINT LOUIS FLIGHT SERVICE STATION
Attendance: CONTINUOUS
Wind indicator: lighted
Segmented circle: no
Lights: FOR PERIMETER AND RLLS CALL 618-463-7311.
Beacon: white-green-yellow (heliport)

Heliport Communications

WX AWOS-3 at ALN (5 nm E): 128.0 (618-259-7231)
WX ASOS at SET (13 nm W): 118.075 (636-250-4590)
WX ASOS at STL (13 nm SW): PHONE 314-890-4790
WX ASOS at CPS (20 nm S): PHONE 618-332-0001

Nearby radio navigation aids

VOR radial/distance  VOR name  Freq  Var
TOYr306/14.8TROY VORTAC116.0004E
STLr080/15.2ST LOUIS VORTAC117.4001E
FTZr067/39.9FORISTELL VORTAC110.8005E

 
NDB name  Hdg/Dist  Freq  Var  ID
CIVIC MEMORIAL276/4.826301WCVM -.-. ...- --
ZUMAY041/8.740401WST ... -
ALPOS285/10.721801WAL .- .-..

Heliport Services

Runway Information

Helipad H1

Dimensions: 50 x 50 ft. / 15 x 15 m
Surface: concrete, in good condition
Runway edge lights: PERI
Latitude: 38-53.917667N
Longitude: 090-09.581333W
Elevation: 525.0 ft.
Traffic pattern: leftleft
Approach lights: RLLS

Heliport Ownership and Management from official FAA records

Ownership: Privately-owned
Owner: ALTON MEMORIAL HOSPITAL
ONE MEMORIAL DRIVE
ALTON, IL 62002
Phone 618-463-7311
Manager: RON GREENWOOD
ONE MEMORIAL DRIVE
ALTON, IL 62002
Phone 618-463-7307
RON GREENWOOD 618-463-7307

Additional Remarks

FOR CD CTC ST LOUIS APCH AT 314-890-1018.

Instrument Procedures

There are no published instrument procedures at 1IL3.

Some nearby airports with instrument procedures:

KALN - St Louis Regional Airport (5 nm E)
KSET - St Charles County Smartt Airport (13 nm W)
KSTL - St Louis Lambert International Airport (13 nm SW)
1H0 - Creve Coeur Airport (19 nm SW)
KCPS - St Louis Downtown Airport (20 nm S)
 
Loc | Ops | Rwys | IFR | FBO | Links
Com | Nav | Svcs | Stats | Notes
Area around 1IL3 (Alton Memorial Hospital Heliport)
 
Road maps at: MapQuest Bing Google
 
Aerial photo
No photo
 
Sectional chart

 
Airport distance calculator
Flying to Alton Memorial Hospital Heliport? Find the distance to fly.

From to 1IL3

Sunrise and sunset
Times for 22-Sep-2019
 Local
(UTC-5)
 Zulu
(UTC)
Morning civil twilight06:2311:23
Sunrise06:4911:49
Sunset18:5723:57
Evening civil twilight19:2400:24

Current date and time
Zulu (UTC)  22-Sep-2019 21:51:15
Local (UTC-5)  22-Sep-2019 16:51:15
 
METAR
KALN 
6nm E 
222050Z 24006KT 10SM SCT029 BKN055 OVC070 23/23 A2991
KSET 
13nm W 
222054Z AUTO A2991 RMK AO2 SLPNO 55003 PWINO $
KSTL 
13nm SW 
222138Z 24014KT 2SM R30R/6000VP6000FT RA BR FEW009 BKN037 OVC055 23/22 A2994 RMK AO2 P0006 T02330217 $
KCPS 
20nm S 
222053Z 24012G29KT 10SM BKN060 BKN075 29/19 A2990 RMK AO2 PK WND 22029/2045 RAB15E29 SLP122 P0000 60000 T02890194 55014
TAF
KSTL 
13nm SW 
221914Z 2219/2324 22013G21KT 6SM -RA OVC050 TEMPO 2219/2223 4SM SHRA BR OVC030 FM230600 30009KT P6SM OVC015 FM231100 33006KT P6SM FEW040
KCPS 
20nm S 
221917Z 2219/2318 22012KT 6SM -RA OVC050 TEMPO 2220/2224 4SM SHRA BR OVC030 FM230600 30008KT P6SM OVC015 FM231100 33005KT P6SM FEW040
NOTAMs
Click for the latest NOTAMs
NOTAMs are issued by the DoD/FAA and will open in a separate window not controlled by AirNav.

 

 
 

Would you like to see your business listed on this page?

 If your business provides an interesting product or service to pilots, flight crews, aircraft, or users of the Alton Memorial Hospital Heliport, you should consider listing it here.  To start the listing process, click on the button below
 
Add a business
 

Other Pages about Alton Memorial Hospital Heliport

Update a link
 
Copyright © AirNav, LLC. All rights reserved. Privacy Policy  Contact